Time;durP1;ratioP1;P1;durP2;ratioP2;P2;SDS_P1;SDS_P2;PMS_P1;PMS_P2;Temp;Humidity;BMP_temperature;BMP_pressure;BME280_temperature;BME280_humidity;BME280_pressure;Samples;Min_cycle;Max_cycle;Signal;HPM_P1;HPM_P2
2021/07/26 00:01:28;;;;;;;28.88;19.25;;;;;;;15.27;93.17;101026.69;4993585;28;20140;-74
2021/07/26 00:03:54;;;;;;;25.92;17.02;;;;;;;15.22;93.16;101023.66;4993394;28;20042;-74
2021/07/26 00:06:19;;;;;;;38.33;18.75;;;;;;;15.18;93.48;101019.63;4992637;28;20398;-74
2021/07/26 00:08:45;;;;;;;35.28;18.27;;;;;;;15.11;93.56;101014.09;4993168;28;20066;-74
2021/07/26 00:11:11;;;;;;;32.03;20.30;;;;;;;15.07;93.12;101016.25;4992576;28;20093;-74
2021/07/26 00:13:37;;;;;;;26.67;16.80;;;;;;;15.07;93.18;101016.25;4991723;28;20041;-74
2021/07/26 00:16:04;;;;;;;32.85;20.92;;;;;;;15.05;93.22;101010.25;4991123;28;20506;-74
2021/07/26 00:18:31;;;;;;;37.40;21.88;;;;;;;15.06;93.72;101011.06;4993197;28;20042;-75
2021/07/26 00:20:57;;;;;;;34.15;20.50;;;;;;;15.06;93.36;101017.28;4992984;28;20493;-74
2021/07/26 00:23:23;;;;;;;35.92;21.70;;;;;;;15.06;93.90;101014.59;4992353;28;20034;-74
2021/07/26 00:25:49;;;;;;;33.25;20.70;;;;;;;15.04;93.67;101013.91;4992982;28;20085;-74
2021/07/26 00:28:14;;;;;;;41.35;23.30;;;;;;;15.04;93.61;101011.22;4992568;28;20033;-74
2021/07/26 00:30:40;;;;;;;34.38;20.55;;;;;;;15.07;93.98;101008.22;4992971;28;20034;-74
2021/07/26 00:34:06;;;;;;;39.72;21.90;;;;;;;15.12;93.96;101013.09;4992427;28;20463;-74
2021/07/26 00:36:33;;;;;;;35.13;22.13;;;;;;;15.13;93.75;101010.25;4993522;28;20114;-74
2021/07/26 00:38:58;;;;;;;41.85;22.52;;;;;;;15.13;93.75;101001.38;4993113;28;20038;-74
2021/07/26 00:41:24;;;;;;;38.33;22.65;;;;;;;15.13;93.76;101007.56;4990210;28;20096;-75
2021/07/26 00:43:49;;;;;;;39.00;23.55;;;;;;;15.09;94.14;101000.88;4992778;28;20069;-74
2021/07/26 00:46:15;;;;;;;42.22;25.58;;;;;;;15.08;93.88;101001.88;4992157;28;20479;-74
2021/07/26 00:48:41;;;;;;;39.80;23.70;;;;;;;15.05;93.90;100996.84;4992677;28;20144;-74
2021/07/26 00:51:06;;;;;;;36.00;23.27;;;;;;;15.01;94.12;100990.13;4992080;28;20034;-74
2021/07/26 00:53:32;;;;;;;46.22;27.63;;;;;;;14.98;93.73;100996.66;4992793;28;20062;-74
2021/07/26 00:55:57;;;;;;;40.92;26.05;;;;;;;14.94;93.86;100994.47;4992844;28;20031;-74
2021/07/26 00:58:23;;;;;;;45.30;24.13;;;;;;;14.87;93.91;100999.66;4992284;28;20042;-74
2021/07/26 01:00:48;;;;;;;46.25;26.65;;;;;;;14.81;94.09;100995.78;4992793;28;20062;-74
2021/07/26 01:03:14;;;;;;;38.97;23.42;;;;;;;14.75;93.81;100990.22;4992094;28;20081;-74
2021/07/26 01:05:40;;;;;;;38.08;23.67;;;;;;;14.71;94.21;100997.75;4992823;28;20031;-74
2021/07/26 01:08:05;;;;;;;44.88;26.27;;;;;;;14.67;93.93;100988.34;4992105;28;20494;-74
2021/07/26 01:10:31;;;;;;;41.53;23.75;;;;;;;14.62;93.84;100986.16;4992696;28;20037;-74
2021/07/26 01:12:56;;;;;;;44.15;26.85;;;;;;;14.58;93.96;100992.81;4992614;28;20030;-74
2021/07/26 01:15:22;;;;;;;45.25;26.27;;;;;;;14.56;94.05;100985.97;4992201;28;20142;-74
2021/07/26 01:18:14;;;;;;;55.75;30.30;;;;;;;14.53;93.76;100987.13;4992516;28;20058;-74
2021/07/26 01:20:40;;;;;;;68.47;36.90;;;;;;;14.54;93.77;100983.44;4992594;28;20030;-74
2021/07/26 01:23:05;;;;;;;58.60;32.35;;;;;;;14.55;93.96;100995.81;4991337;28;20042;-74
2021/07/26 01:25:34;;;;;;;53.95;30.70;;;;;;;14.53;93.92;100984.44;4992239;28;20118;-74
2021/07/26 01:28:00;;;;;;;50.08;29.60;;;;;;;14.52;94.04;100992.63;4991071;28;20077;-74
2021/07/26 01:30:25;;;;;;;64.88;32.65;;;;;;;14.48;94.37;100988.59;4991715;28;20475;-74
2021/07/26 01:32:50;;;;;;;63.03;32.30;;;;;;;14.48;94.35;100989.44;4992378;28;20034;-75
2021/07/26 01:35:16;;;;;;;67.25;34.78;;;;;;;14.46;94.38;100986.94;4991925;28;20372;-74
2021/07/26 01:37:41;;;;;;;64.93;35.60;;;;;;;14.48;94.41;100988.59;4992449;28;20030;-74
2021/07/26 01:40:07;;;;;;;63.20;35.28;;;;;;;14.49;94.62;100985.75;4992302;28;20462;-75
2021/07/26 01:42:32;;;;;;;65.60;36.17;;;;;;;14.52;94.63;100984.59;4992045;28;20030;-74
2021/07/26 01:44:58;;;;;;;73.07;37.75;;;;;;;14.53;94.68;100987.13;4992209;28;20058;-74
2021/07/26 01:47:26;;;;;;;92.55;43.28;;;;;;;14.57;94.61;100987.63;4991466;28;20487;-74
2021/07/26 01:49:55;;;;;;;81.50;40.67;;;;;;;14.59;94.53;100989.13;4992845;28;20033;-74
2021/07/26 01:52:21;;;;;;;75.25;39.15;;;;;;;14.63;94.44;100993.22;4993702;28;20039;-74
2021/07/26 01:54:47;;;;;;;84.18;39.38;;;;;;;14.62;94.42;100991.53;4995954;28;20517;-74
2021/07/26 01:57:12;;;;;;;88.70;42.97;;;;;;;14.65;94.50;100990.38;4995204;28;20046;-74
2021/07/26 01:59:38;;;;;;;111.53;51.83;;;;;;;14.70;94.46;100996.06;4995598;28;20038;-74
2021/07/26 02:02:03;;;;;;;93.13;45.00;;;;;;;14.76;94.57;101002.63;4995865;28;20433;-74
2021/07/26 02:04:29;;;;;;;109.47;51.22;;;;;;;14.77;94.99;101005.13;4995275;28;20037;-74
2021/07/26 02:06:54;;;;;;;118.95;54.63;;;;;;;14.80;94.95;100998.63;4995609;28;20035;-74
2021/07/26 02:09:20;;;;;;;113.97;54.50;;;;;;;14.86;95.00;101005.16;4995000;28;20534;-74
2021/07/26 02:11:45;;;;;;;123.53;56.30;;;;;;;14.89;94.92;101005.66;4996129;28;20045;-75
2021/07/26 02:14:11;;;;;;;134.23;58.40;;;;;;;14.94;94.99;100999.81;4996336;28;20117;-74
2021/07/26 02:16:38;;;;;;;125.68;57.78;;;;;;;14.96;95.17;100993.31;4995718;28;20054;-74
2021/07/26 02:19:05;;;;;;;176.77;73.90;;;;;;;14.99;94.72;100989.47;4995520;28;20049;-74
2021/07/26 02:21:30;;;;;;;137.40;60.38;;;;;;;15.04;95.14;100987.13;4994946;28;20491;-74
2021/07/26 02:23:56;;;;;;;136.48;61.45;;;;;;;15.07;94.89;100994.81;4995077;28;20103;-74
2021/07/26 02:26:21;;;;;;;112.85;53.85;;;;;;;15.07;95.01;100989.47;4993482;28;20034;-74
2021/07/26 02:28:46;;;;;;;119.30;55.60;;;;;;;15.07;95.08;100992.16;4995521;28;20114;-75
2021/07/26 02:31:12;;;;;;;101.07;48.67;;;;;;;15.07;95.24;100981.44;4995002;28;20446;-74
2021/07/26 02:33:37;;;;;;;123.78;56.47;;;;;;;15.06;94.95;100987.81;4993437;28;20108;-74
2021/07/26 02:36:02;;;;;;;133.10;59.25;;;;;;;15.07;95.01;100989.47;4995079;28;20039;-74
2021/07/26 02:38:28;;;;;;;134.77;60.35;;;;;;;15.08;95.20;100983.13;4993256;28;20073;-74
2021/07/26 02:40:53;;;;;;;117.07;54.28;;;;;;;15.08;94.88;100987.66;4994956;28;20035;-74
2021/07/26 02:43:18;;;;;;;128.82;59.15;;;;;;;15.07;95.23;100994.81;4994368;28;20089;-74
2021/07/26 02:45:44;;;;;;;133.48;58.75;;;;;;;15.08;94.87;100988.47;4994912;28;20038;-74
2021/07/26 02:48:10;;;;;;;128.88;56.70;;;;;;;15.10;95.07;100989.13;4995025;28;20054;-74
2021/07/26 02:50:35;;;;;;;113.00;54.40;;;;;;;15.09;95.16;100995.53;4994199;28;20034;-74
2021/07/26 02:53:01;;;;;;;114.05;54.53;;;;;;;15.08;95.16;100993.81;4994724;28;20033;-75
2021/07/26 02:55:29;;;;;;;147.60;62.33;;;;;;;15.11;94.75;100990.00;4993959;28;20042;-74
2021/07/26 02:57:58;;;;;;;131.55;58.97;;;;;;;15.17;95.19;100994.69;4994648;28;20038;-74
2021/07/26 03:00:23;;;;;;;132.70;60.75;;;;;;;15.19;95.18;100994.53;4993903;28;20226;-74
2021/07/26 03:02:49;;;;;;;121.38;56.63;;;;;;;15.19;95.01;100994.53;4994128;28;20102;-74
2021/07/26 03:05:14;;;;;;;118.32;56.47;;;;;;;15.20;94.94;100999.72;4994099;28;20398;-74
2021/07/26 03:07:39;;;;;;;141.65;63.58;;;;;;;15.23;94.94;101002.06;4993932;28;20038;-74
2021/07/26 03:10:05;;;;;;;129.10;61.50;;;;;;;15.28;95.37;101001.56;4993179;28;20038;-74
2021/07/26 03:12:31;;;;;;;139.10;62.33;;;;;;;15.30;95.12;101003.06;4993751;28;20038;-74
2021/07/26 03:14:56;;;;;;;128.88;60.10;;;;;;;15.32;95.39;101001.06;4993783;28;20556;-74
2021/07/26 03:17:25;;;;;;;123.85;57.92;;;;;;;15.30;94.68;101003.06;4993834;28;20049;-74
2021/07/26 03:19:55;;;;;;;116.95;56.83;;;;;;;15.29;95.30;101001.41;4994170;28;20410;-74
2021/07/26 03:22:47;;;;;;;116.80;57.20;;;;;;;15.31;94.97;101009.25;4993828;28;20033;-74
2021/07/26 03:25:13;;;;;;;116.78;57.05;;;;;;;15.31;95.17;101007.41;4994021;28;20034;-74
2021/07/26 03:27:38;;;;;;;125.65;58.20;;;;;;;15.30;95.39;101008.44;4993567;28;20053;-74
2021/07/26 03:30:04;;;;;;;117.30;55.97;;;;;;;15.32;94.97;101013.63;4993934;28;20494;-74
2021/07/26 03:32:30;;;;;;;103.68;51.45;;;;;;;15.32;95.28;101009.09;4993822;28;20514;-74
2021/07/26 03:34:55;;;;;;;111.63;55.90;;;;;;;15.32;95.16;101014.47;4994415;28;20451;-74
2021/07/26 03:37:20;;;;;;;102.78;53.85;;;;;;;15.33;95.11;101016.16;4994136;28;20471;-74
2021/07/26 03:39:46;;;;;;;106.03;55.25;;;;;;;15.34;95.04;101011.63;4994355;28;20038;-74
2021/07/26 03:42:11;;;;;;;120.97;56.92;;;;;;;15.37;94.93;101018.50;4994004;28;20065;-74
2021/07/26 03:44:36;;;;;;;109.28;52.83;;;;;;;15.38;95.21;101014.81;4992933;28;20027;-74
2021/07/26 03:47:02;;;;;;;111.50;56.17;;;;;;;15.41;95.12;101019.84;4993930;28;20479;-74
2021/07/26 03:49:27;;;;;;;118.15;57.60;;;;;;;15.43;94.90;101020.50;4993190;28;20042;-74
2021/07/26 03:51:52;;;;;;;114.15;56.28;;;;;;;15.45;94.97;101016.66;4993701;28;20046;-74
2021/07/26 03:54:18;;;;;;;105.13;51.88;;;;;;;15.45;94.82;101018.47;4993793;28;20093;-74
2021/07/26 03:56:43;;;;;;;109.97;50.47;;;;;;;15.43;94.94;101024.00;4993135;28;20038;-74
2021/07/26 03:59:08;;;;;;;116.35;56.45;;;;;;;15.43;94.75;101013.28;4993841;28;20109;-74
2021/07/26 04:01:34;;;;;;;110.65;56.20;;;;;;;15.44;94.90;101019.50;4993004;28;20042;-74
2021/07/26 04:03:59;;;;;;;98.88;52.35;;;;;;;15.44;95.01;101031.06;4993541;28;20497;-74
2021/07/26 04:06:25;;;;;;;105.10;51.72;;;;;;;15.42;95.04;101021.50;4992865;28;20126;-74
2021/07/26 04:08:52;;;;;;;101.72;51.30;;;;;;;15.39;94.93;101014.66;4993410;28;20070;-74
2021/07/26 04:11:24;;;;;;;106.15;53.33;;;;;;;15.38;94.83;101023.69;4993260;28;20372;-74
2021/07/26 04:13:54;;;;;;;106.05;54.10;;;;;;;15.37;94.78;101022.00;4993557;28;20096;-73
2021/07/26 04:16:19;;;;;;;105.50;51.83;;;;;;;15.38;94.76;101021.00;4993013;28;20518;-74
2021/07/26 04:18:49;;;;;;;103.25;53.17;;;;;;;15.37;94.67;101026.53;4992697;28;20080;-74
2021/07/26 04:21:14;;;;;;;116.05;55.65;;;;;;;15.37;94.77;101016.63;4993230;28;20121;-74
2021/07/26 04:23:40;;;;;;;135.43;60.72;;;;;;;15.41;95.05;101020.66;4992493;28;20113;-73
2021/07/26 04:26:08;;;;;;;128.40;58.80;;;;;;;15.48;94.79;101018.16;4993128;28;20061;-74
2021/07/26 04:28:33;;;;;;;109.20;53.60;;;;;;;15.50;94.60;101013.47;4992776;28;20026;-74
2021/07/26 04:30:59;;;;;;;110.30;55.35;;;;;;;15.51;94.85;101007.13;4993298;28;20034;-73
2021/07/26 04:33:24;;;;;;;107.80;53.58;;;;;;;15.52;95.04;101017.69;4993154;28;20113;-74
2021/07/26 04:35:49;;;;;;;111.65;54.35;;;;;;;15.57;94.86;101013.63;4992344;28;20043;-73
2021/07/26 04:38:15;;;;;;;102.43;53.88;;;;;;;15.60;95.04;101016.84;4993035;28;20118;-74
2021/07/26 04:40:40;;;;;;;108.32;50.13;;;;;;;15.65;95.09;101021.69;4992488;28;20037;-74
2021/07/26 04:43:06;;;;;;;87.40;47.45;;;;;;;15.71;95.04;101017.50;4993141;28;20031;-74
2021/07/26 04:45:31;;;;;;;75.13;45.83;;;;;;;15.75;94.66;101013.47;4992311;28;20026;-73
2021/07/26 04:47:57;;;;;;;86.72;45.00;;;;;;;15.78;94.70;101013.16;4993263;28;20093;-73
2021/07/26 04:50:22;;;;;;;89.97;47.15;;;;;;;15.83;94.72;101017.00;4992902;28;20031;-74
2021/07/26 04:52:48;;;;;;;79.13;45.80;;;;;;;15.88;94.72;101027.22;4992117;28;20042;-74
2021/07/26 04:55:13;;;;;;;82.95;46.72;;;;;;;15.93;94.73;101015.97;4993125;28;20035;-74
2021/07/26 04:57:39;;;;;;;72.90;42.92;;;;;;;15.97;94.74;101007.44;4992293;28;20069;-74
2021/07/26 05:00:05;;;;;;;72.25;42.97;;;;;;;16.00;94.37;101004.41;4993026;28;20031;-74
2021/07/26 05:02:31;;;;;;;76.72;44.58;;;;;;;16.07;94.50;101007.25;4992284;28;20038;-74
2021/07/26 05:04:56;;;;;;;79.95;43.75;;;;;;;16.11;94.33;101013.09;4992855;28;20433;-74
2021/07/26 05:07:22;;;;;;;64.47;41.20;;;;;;;16.13;94.39;101019.16;4992604;28;20073;-74
2021/07/26 05:09:47;;;;;;;72.90;42.33;;;;;;;16.15;94.13;101019.81;4992347;28;20035;-74
2021/07/26 05:12:13;;;;;;;67.32;41.17;;;;;;;16.16;93.93;101022.31;4991424;28;20035;-74
2021/07/26 05:14:40;;;;;;;61.70;39.92;;;;;;;16.18;93.60;101014.94;4992011;28;20080;-74
2021/07/26 05:17:05;;;;;;;66.18;40.40;;;;;;;16.24;93.47;101015.25;4991528;28;20053;-74
2021/07/26 05:19:31;;;;;;;59.22;37.25;;;;;;;16.29;93.31;101012.91;4991913;28;20038;-74
2021/07/26 05:21:56;;;;;;;50.10;35.45;;;;;;;16.29;92.99;101024.47;4992600;28;20026;-74
2021/07/26 05:24:21;;;;;;;73.22;36.47;;;;;;;16.32;92.65;101028.66;4992797;28;20062;-74
2021/07/26 05:26:47;;;;;;;65.15;37.88;;;;;;;16.35;93.08;101026.47;4992978;28;20042;-75
2021/07/26 05:29:12;;;;;;;68.78;39.50;;;;;;;16.38;92.79;101025.28;4996542;28;20038;-75
2021/07/26 05:31:37;;;;;;;57.55;37.03;;;;;;;16.38;92.71;101027.97;4995961;28;20035;-75
2021/07/26 05:34:03;;;;;;;58.10;37.78;;;;;;;16.38;92.83;101038.72;4995120;28;20038;-75
2021/07/26 05:36:28;;;;;;;54.17;35.33;;;;;;;16.37;92.60;101031.66;4994801;28;20034;-75
2021/07/26 05:38:54;;;;;;;54.47;35.13;;;;;;;16.36;92.50;101032.66;4995397;28;20486;-75
2021/07/26 05:41:19;;;;;;;55.00;35.75;;;;;;;16.37;92.72;101034.34;4996583;28;20368;-75
2021/07/26 05:43:45;;;;;;;62.45;36.03;;;;;;;16.36;92.42;101032.66;4994360;28;20394;-74
2021/07/26 05:46:11;;;;;;;55.70;37.47;;;;;;;16.40;92.77;101034.00;4996148;28;20030;-75
2021/07/26 05:48:36;;;;;;;49.72;34.30;;;;;;;16.43;92.63;101028.28;4995468;28;20117;-74
2021/07/26 05:51:03;;;;;;;48.47;30.98;;;;;;;16.46;92.05;101027.94;4996050;28;20035;-75
2021/07/26 05:53:29;;;;;;;50.50;35.33;;;;;;;16.54;92.14;101027.06;4996138;28;20105;-74
2021/07/26 05:55:55;;;;;;;45.25;31.58;;;;;;;16.60;92.08;101021.03;4995521;28;20414;-74
2021/07/26 05:58:20;;;;;;;47.47;29.75;;;;;;;16.70;92.04;101012.72;4996197;28;20034;-74
2021/07/26 06:00:56;;;;;;;42.45;27.23;;;;;;;16.80;90.61;101012.53;4995420;28;20065;-74
2021/07/26 06:03:22;;;;;;;37.17;26.40;;;;;;;16.92;90.09;101017.34;4994534;28;20030;-73
2021/07/26 06:05:47;;;;;;;30.58;24.92;;;;;;;17.13;90.63;101020.44;4994841;28;20537;-73
2021/07/26 06:08:12;;;;;;;39.78;27.92;;;;;;;17.33;90.31;101008.22;4995769;28;20058;-73
2021/07/26 06:10:38;;;;;;;32.17;25.23;;;;;;;17.59;90.48;101005.13;4994969;28;20467;-73
2021/07/26 06:13:05;;;;;;;37.63;24.42;;;;;;;17.76;89.31;101005.81;4995624;28;20467;-73
2021/07/26 06:15:30;;;;;;;35.03;25.73;;;;;;;17.86;88.90;101007.44;4995513;28;20195;-73
2021/07/26 06:17:55;;;;;;;34.03;25.48;;;;;;;17.94;88.65;101008.22;4995241;28;20069;-73
2021/07/26 06:20:21;;;;;;;37.88;22.60;;;;;;;18.07;89.08;101014.81;4995319;28;20030;-73
2021/07/26 06:22:46;;;;;;;35.67;27.08;;;;;;;18.19;88.78;101023.28;4995183;28;20037;-73
2021/07/26 06:25:12;;;;;;;43.92;25.75;;;;;;;18.32;88.08;101024.28;4995051;28;20109;-73
2021/07/26 06:27:42;;;;;;;30.10;22.50;;;;;;;18.40;86.91;101027.91;4994749;28;20037;-71
2021/07/26 06:30:07;;;;;;;31.95;24.17;;;;;;;18.50;87.84;101036.56;4994974;28;20034;-74
2021/07/26 06:32:35;;;;;;;28.83;20.88;;;;;;;18.58;87.55;101033.75;4994758;28;20553;-74
2021/07/26 06:35:01;;;;;;;28.45;21.90;;;;;;;18.68;86.79;101039.69;4994307;28;20110;-73
2021/07/26 06:37:26;;;;;;;28.23;20.92;;;;;;;18.77;85.69;101039.59;4994758;28;20054;-73
2021/07/26 06:39:51;;;;;;;32.50;21.73;;;;;;;18.71;85.28;101046.56;4994560;28;20040;-73
2021/07/26 06:42:18;;;;;;;25.70;20.55;;;;;;;18.72;85.79;101040.16;4995208;28;20117;-74
2021/07/26 06:44:44;;;;;;;26.50;20.48;;;;;;;18.74;84.94;101040.81;4994410;28;20479;-72
2021/07/26 06:47:10;;;;;;;28.45;22.70;;;;;;;18.76;85.86;101051.38;4994907;28;20049;-72
2021/07/26 06:49:35;;;;;;;28.27;23.48;;;;;;;18.88;85.84;101054.47;4994669;28;20545;-72
2021/07/26 06:52:02;;;;;;;23.45;19.33;;;;;;;19.00;85.22;101051.13;4985809;28;20039;-73
2021/07/26 06:54:28;;;;;;;26.05;20.77;;;;;;;19.06;84.46;101057.59;4972669;28;20035;-73
2021/07/26 06:56:53;;;;;;;24.02;19.30;;;;;;;19.15;82.76;101064.56;4972027;28;20050;-74
2021/07/26 06:59:18;;;;;;;25.45;18.98;;;;;;;19.18;83.06;101055.22;4972527;28;20125;-73
2021/07/26 07:01:43;;;;;;;30.83;20.85;;;;;;;19.19;83.85;101060.44;4971772;28;20493;-73
2021/07/26 07:04:09;;;;;;;28.50;17.60;;;;;;;19.14;83.13;101057.47;4971906;28;20030;-73
2021/07/26 07:06:34;;;;;;;24.42;18.75;;;;;;;18.96;82.68;101062.44;4972356;28;20130;-74
2021/07/26 07:08:59;;;;;;;30.80;17.73;;;;;;;18.73;82.99;101065.25;4971913;28;20448;-73
2021/07/26 07:11:25;;;;;;;35.00;21.85;;;;;;;18.48;85.53;101065.53;4987473;28;20553;-74
2021/07/26 07:13:52;;;;;;;21.38;19.05;;;;;;;18.11;86.49;101068.09;4971931;28;20050;-73
2021/07/26 07:16:19;;;;;;;19.10;17.05;;;;;;;17.87;86.08;101066.44;4972024;28;20154;-73
2021/07/26 07:18:46;;;;;;;31.10;23.25;;;;;;;17.70;87.65;101079.19;4971401;28;20042;-73
2021/07/26 07:21:19;;;;;;;32.58;23.95;;;;;;;17.61;89.11;101078.41;4972104;28;20031;-71
2021/07/26 07:23:45;;;;;;;33.58;23.27;;;;;;;17.58;90.05;101075.25;4971740;28;20148;-72
2021/07/26 07:26:11;;;;;;;36.92;19.58;;;;;;;17.55;89.41;101072.91;4971826;28;20046;-72
2021/07/26 07:28:37;;;;;;;25.83;18.70;;;;;;;17.50;89.75;101068.09;4972005;28;20094;-72
2021/07/26 07:31:03;;;;;;;24.55;17.65;;;;;;;17.48;90.20;101070.13;4986215;28;20398;-73
2021/07/26 07:33:28;;;;;;;11.77;9.85;;;;;;;17.48;88.42;101064.75;4971789;28;20034;-73
2021/07/26 07:35:54;;;;;;;14.48;10.70;;;;;;;17.51;88.52;101063.53;4971060;28;20043;-72
2021/07/26 07:38:19;;;;;;;14.90;8.80;;;;;;;17.51;88.26;101067.06;4986538;28;20034;-71
2021/07/26 07:40:45;;;;;;;10.88;7.15;;;;;;;17.56;88.42;101058.47;4970541;28;20050;-73
2021/07/26 07:43:10;;;;;;;10.05;8.05;;;;;;;17.60;88.55;101059.75;4971048;28;20077;-73
2021/07/26 07:45:35;;;;;;;6.60;6.00;;;;;;;17.69;88.26;101060.53;4954245;28;20578;-73
2021/07/26 07:48:01;;;;;;;7.45;6.60;;;;;;;17.77;87.26;101064.00;4970896;28;20125;-72
2021/07/26 07:50:28;;;;;;;6.60;5.93;;;;;;;17.87;87.64;101058.38;4970788;28;20105;-72
2021/07/26 07:52:53;;;;;;;9.63;6.00;;;;;;;17.98;86.57;101060.66;4971127;28;20031;-73
2021/07/26 07:55:19;;;;;;;9.02;6.18;;;;;;;18.10;85.86;101068.28;4971627;28;20503;-72
2021/07/26 07:57:46;;;;;;;8.80;6.68;;;;;;;18.30;86.58;101068.56;4971378;28;20475;-72
2021/07/26 08:00:13;;;;;;;11.48;7.35;;;;;;;18.55;86.09;101066.44;4970730;28;20034;-72
2021/07/26 08:02:38;;;;;;;8.23;6.32;;;;;;;18.84;84.90;101067.47;4971108;28;20034;-72
2021/07/26 08:05:04;;;;;;;9.77;6.90;;;;;;;19.26;84.56;101076.72;4970743;28;20046;-73
2021/07/26 08:07:29;;;;;;;8.57;6.28;;;;;;;19.66;81.68;101079.81;4971535;28;20038;-71
2021/07/26 08:09:55;;;;;;;12.18;7.10;;;;;;;20.05;82.12;101081.22;4970667;28;20089;-72
2021/07/26 08:12:20;;;;;;;7.13;5.57;;;;;;;20.34;78.74;101087.44;4971221;28;20117;-71
2021/07/26 08:14:46;;;;;;;7.30;5.25;;;;;;;20.56;77.34;101084.66;4970679;28;20483;-72
2021/07/26 08:17:11;;;;;;;7.43;6.57;;;;;;;20.71;76.07;101084.56;4970379;28;20125;-72
2021/07/26 08:19:36;;;;;;;6.95;5.65;;;;;;;20.99;74.90;101086.34;4971345;28;20069;-73
2021/07/26 08:22:02;;;;;;;10.15;7.18;;;;;;;20.97;74.22;101091.94;4970341;28;20053;-72
2021/07/26 08:24:27;;;;;;;13.02;8.80;;;;;;;20.85;78.68;101088.16;4986136;28;20069;-72
2021/07/26 08:26:53;;;;;;;12.52;8.32;;;;;;;20.86;78.46;101090.66;4984917;28;20034;-73
2021/07/26 08:29:18;;;;;;;10.15;6.93;;;;;;;21.04;76.88;101084.69;4971013;28;20035;-74
2021/07/26 08:31:43;;;;;;;8.50;7.60;;;;;;;21.20;78.03;101074.56;4971277;28;20472;-73
2021/07/26 08:34:09;;;;;;;11.95;8.52;;;;;;;21.42;76.40;101080.66;4970558;28;20038;-73
2021/07/26 08:36:35;;;;;;;9.25;7.20;;;;;;;21.68;74.64;101079.91;4970964;28;20526;-73
2021/07/26 08:39:00;;;;;;;8.60;7.20;;;;;;;21.75;73.65;101072.63;4970166;28;20034;-73
2021/07/26 08:41:26;;;;;;;9.27;7.82;;;;;;;21.62;74.20;101072.59;4971139;28;20037;-75
2021/07/26 08:43:52;;;;;;;12.45;8.30;;;;;;;21.59;77.21;101079.25;4970643;28;20448;-75
2021/07/26 08:46:19;;;;;;;16.13;8.25;;;;;;;21.46;75.67;101074.63;4970138;28;20113;-75
2021/07/26 08:48:46;;;;;;;8.60;7.25;;;;;;;21.53;76.25;101071.97;4969664;28;20035;-76
2021/07/26 08:51:15;;;;;;;7.75;6.38;;;;;;;21.64;73.88;101065.09;4969761;28;20030;-75
2021/07/26 08:53:42;;;;;;;8.07;5.90;;;;;;;21.54;74.08;101064.66;4970963;28;20475;-74
2021/07/26 08:56:08;;;;;;;5.80;5.30;;;;;;;21.27;70.23;101062.72;4970110;28;20050;-75
2021/07/26 08:58:35;;;;;;;8.63;5.97;;;;;;;21.10;74.73;101064.94;4970518;28;20038;-75
2021/07/26 09:01:01;;;;;;;7.85;7.05;;;;;;;21.00;76.09;101067.22;4969963;28;20049;-74
2021/07/26 09:03:27;;;;;;;8.82;6.40;;;;;;;21.05;75.59;101072.00;4974274;28;20031;-75
2021/07/26 09:05:52;;;;;;;8.20;6.68;;;;;;;21.00;76.65;101079.91;4975139;28;20177;-74
2021/07/26 09:08:18;;;;;;;7.80;6.85;;;;;;;20.84;76.18;101076.53;4974258;28;20038;-74
2021/07/26 09:10:44;;;;;;;11.60;7.93;;;;;;;20.68;78.18;101080.38;4974543;28;20035;-74
2021/07/26 09:13:12;;;;;;;11.57;8.57;;;;;;;20.59;78.92;101078.88;4973723;28;20026;-75
2021/07/26 09:15:37;;;;;;;8.85;7.65;;;;;;;20.67;78.11;101070.59;4973817;28;20082;-73
2021/07/26 09:18:05;;;;;;;17.40;8.65;;;;;;;20.88;77.45;101071.53;4973922;28;20121;-72
2021/07/26 09:20:32;;;;;;;12.45;10.27;;;;;;;21.61;77.44;101085.28;4974103;28;20046;-74
2021/07/26 09:23:17;;;;;;;8.32;7.15;;;;;;;23.64;64.41;101065.56;4974130;28;20397;-75
2021/07/26 09:25:44;;;;;;;8.73;7.30;;;;;;;25.38;61.96;101075.44;4974684;28;20110;-73
2021/07/26 09:28:33;;;;;;;8.20;6.82;;;;;;;25.40;60.02;101070.56;4973152;28;20431;-72
2021/07/26 09:30:58;;;;;;;7.20;6.50;;;;;;;25.47;59.29;101075.94;4974582;28;20038;-72
2021/07/26 09:33:24;;;;;;;7.38;6.07;;;;;;;26.81;54.61;101066.25;4973710;28;20034;-71
2021/07/26 09:36:14;;;;;;;5.50;4.88;;;;;;;27.67;52.32;101070.84;4973945;28;20399;-71
2021/07/26 09:38:52;;;;;;;10.27;5.90;;;;;;;27.13;52.42;101071.22;4973815;28;20034;-71
2021/07/26 09:41:40;;;;;;;7.25;5.53;;;;;;;26.91;56.51;101071.91;4976803;28;20083;-72
2021/07/26 09:44:06;;;;;;;5.03;4.53;;;;;;;27.41;53.49;101072.31;4991798;28;20054;-72
2021/07/26 09:46:31;;;;;;;5.78;4.70;;;;;;;27.21;52.40;101078.19;4994578;28;20073;-72
2021/07/26 09:49:09;;;;;;;5.10;4.60;;;;;;;28.74;49.53;101068.06;4995299;28;20398;-72
2021/07/26 09:51:35;;;;;;;7.00;4.93;;;;;;;28.29;49.02;101066.34;4995646;28;20065;-72
2021/07/26 09:54:01;;;;;;;5.32;4.78;;;;;;;28.25;48.74;101067.94;4995956;28;20065;-72
2021/07/26 09:56:29;;;;;;;5.93;5.43;;;;;;;28.71;49.20;101063.09;4995183;28;20030;-72
2021/07/26 09:58:55;;;;;;;5.82;5.30;;;;;;;28.22;50.87;101069.25;4995961;28;20022;-72
2021/07/26 10:01:22;;;;;;;7.10;5.60;;;;;;;27.27;53.65;101071.75;4995117;28;20096;-72
2021/07/26 10:03:51;;;;;;;6.45;4.85;;;;;;;27.35;48.46;101074.13;4996035;28;20040;-72
2021/07/26 10:06:18;;;;;;;6.70;6.00;;;;;;;26.57;54.09;101069.00;4995235;28;20430;-72
2021/07/26 10:08:44;;;;;;;6.45;5.90;;;;;;;26.72;53.83;101071.25;4995663;28;20463;-72
2021/07/26 10:11:10;;;;;;;6.63;5.97;;;;;;;26.98;55.72;101069.03;4995028;28;20026;-72
2021/07/26 10:13:39;;;;;;;8.77;6.60;;;;;;;27.30;53.63;101068.53;4995167;28;20038;-72
2021/07/26 10:16:05;;;;;;;9.07;6.55;;;;;;;26.97;53.50;101070.09;4994966;28;20058;-72
2021/07/26 10:18:30;;;;;;;10.02;6.75;;;;;;;26.59;56.49;101068.78;4994434;28;20121;-73
2021/07/26 10:21:04;;;;;;;7.43;6.57;;;;;;;26.24;55.71;101066.91;4994461;28;20114;-72
2021/07/26 10:23:40;;;;;;;12.02;6.53;;;;;;;25.38;57.18;101082.75;4993925;28;20543;-73
2021/07/26 10:26:08;;;;;;;8.93;6.57;;;;;;;24.56;58.08;101075.81;4994297;28;20473;-72
2021/07/26 10:28:38;;;;;;;9.25;6.80;;;;;;;23.83;62.78;101075.44;4993973;28;20101;-72
2021/07/26 10:31:29;;;;;;;8.23;7.30;;;;;;;23.32;62.67;101066.41;4994403;28;20475;-72
2021/07/26 10:34:07;;;;;;;7.65;6.40;;;;;;;23.14;62.93;101075.25;4993909;28;20481;-73
2021/07/26 10:36:45;;;;;;;10.00;6.30;;;;;;;23.27;60.68;101070.81;4993937;28;20093;-73
2021/07/26 10:39:17;;;;;;;8.20;5.88;;;;;;;24.82;60.28;101077.41;4993517;28;20106;-72
2021/07/26 10:41:43;;;;;;;8.77;5.47;;;;;;;25.20;56.38;101078.16;4994243;28;20030;-73
2021/07/26 10:44:28;;;;;;;6.40;5.70;;;;;;;24.45;57.54;101075.50;4993225;28;20467;-72
2021/07/26 10:46:53;;;;;;;6.80;5.70;;;;;;;23.54;60.60;101079.59;4992806;28;20080;-73
2021/07/26 10:49:20;;;;;;;8.90;5.93;;;;;;;22.72;64.60;101082.91;4993241;28;20062;-72
2021/07/26 10:51:51;;;;;;;9.90;7.38;;;;;;;21.99;67.17;101090.13;4994135;28;20488;-73
2021/07/26 10:54:36;;;;;;;15.07;7.55;;;;;;;21.45;70.68;101094.63;4993113;28;20042;-72
2021/07/26 10:57:01;;;;;;;12.00;6.43;;;;;;;21.30;71.58;101093.94;4993813;28;20026;-72
2021/07/26 10:59:28;;;;;;;10.95;7.50;;;;;;;21.13;72.61;101094.31;4993062;28;20039;-72
2021/07/26 11:02:01;;;;;;;12.93;6.78;;;;;;;21.05;71.77;101093.63;4992299;28;20030;-71
2021/07/26 11:04:38;;;;;;;10.75;7.05;;;;;;;20.96;73.12;101091.13;4971653;28;20031;-70
2021/07/26 11:07:06;;;;;;;14.57;7.75;;;;;;;20.78;73.93;101091.69;4971643;28;20177;-71
2021/07/26 11:09:42;;;;;;;13.38;7.70;;;;;;;20.59;72.98;101092.38;4970834;28;20043;-70
2021/07/26 11:12:08;;;;;;;14.02;7.32;;;;;;;20.63;74.49;101096.34;4971270;28;20035;-70